createdAt,value
2022-08-18T00:02:17.742Z,23.43
2022-08-18T00:04:49.206Z,23.44
2022-08-18T00:07:27.784Z,23.46
2022-08-18T00:09:54.769Z,23.46
2022-08-18T00:12:33.642Z,23.44
2022-08-18T00:15:04.436Z,23.43
2022-08-18T00:17:34.633Z,23.42
2022-08-18T00:20:01.786Z,23.44
2022-08-18T00:22:28.841Z,23.45
2022-08-18T00:24:57.487Z,23.40
2022-08-18T00:27:29.813Z,23.39
2022-08-18T00:29:58.747Z,23.37
2022-08-18T00:32:34.470Z,23.36
2022-08-18T00:35:06.879Z,23.33
2022-08-18T00:37:33.898Z,23.31
2022-08-18T00:40:00.918Z,23.33
2022-08-18T00:42:31.040Z,23.30
2022-08-18T00:45:03.481Z,23.30
2022-08-18T00:47:41.421Z,23.30
2022-08-18T00:50:37.801Z,23.29
2022-08-18T00:53:36.085Z,23.26
2022-08-18T00:56:10.930Z,23.23
2022-08-18T00:59:03.059Z,23.18
2022-08-18T01:01:31.610Z,23.14
2022-08-18T01:04:21.744Z,23.13
2022-08-18T01:06:52.697Z,23.12
2022-08-18T01:09:19.538Z,23.12
2022-08-18T01:11:46.490Z,23.11
2022-08-18T01:14:16.111Z,23.10
2022-08-18T01:17:02.195Z,23.09
2022-08-18T01:19:47.683Z,23.09
2022-08-18T01:22:20.864Z,23.08
2022-08-18T01:25:06.466Z,23.07
2022-08-18T01:27:34.443Z,23.05
2022-08-18T01:30:09.980Z,23.01
2022-08-18T01:32:37.297Z,22.97
2022-08-18T01:35:04.951Z,22.97
2022-08-18T01:37:31.874Z,23.00
2022-08-18T01:41:11.177Z,23.02
2022-08-18T01:42:46.864Z,23.08
2022-08-18T01:45:14.845Z,23.10
2022-08-18T01:47:47.504Z,23.05
2022-08-18T01:50:25.533Z,23.04
2022-08-18T01:52:53.790Z,23.04
2022-08-18T01:55:21.277Z,23.02
2022-08-18T01:57:48.297Z,23.02
2022-08-18T02:00:16.717Z,23.05
2022-08-18T02:02:43.867Z,23.05
2022-08-18T02:05:23.518Z,23.05
2022-08-18T02:07:54.511Z,23.04
2022-08-18T02:10:21.711Z,23.03
2022-08-18T02:12:48.659Z,23.03
2022-08-18T02:15:15.824Z,22.99
2022-08-18T02:17:44.211Z,22.95
2022-08-18T02:20:14.919Z,22.91
2022-08-18T02:22:42.196Z,22.89
2022-08-18T02:25:10.180Z,22.87
2022-08-18T02:31:14.738Z,22.86
2022-08-18T02:33:46.921Z,22.85
2022-08-18T02:36:20.727Z,22.87
2022-08-18T02:38:56.621Z,22.90
2022-08-18T02:41:29.383Z,22.89
2022-08-18T02:43:58.274Z,22.86
2022-08-18T02:46:30.234Z,22.85
2022-08-18T02:48:59.974Z,22.84
2022-08-18T02:51:27.103Z,22.83
2022-08-18T02:53:54.439Z,22.84
2022-08-18T02:56:40.303Z,22.83
2022-08-18T02:59:20.075Z,22.78
2022-08-18T03:01:49.168Z,22.74
2022-08-18T03:04:22.897Z,22.73
2022-08-18T03:06:52.714Z,22.73
2022-08-18T03:09:19.866Z,22.77
2022-08-18T03:11:46.917Z,22.79
2022-08-18T03:14:14.713Z,22.78
2022-08-18T03:16:52.849Z,22.76
2022-08-18T03:19:21.392Z,22.75
2022-08-18T03:21:48.642Z,22.73
2022-08-18T03:27:56.705Z,22.73
2022-08-18T03:30:24.069Z,22.73
2022-08-18T03:32:51.125Z,22.73
2022-08-18T03:35:18.391Z,22.73
2022-08-18T03:37:45.386Z,22.73
2022-08-18T03:40:12.650Z,22.73
2022-08-18T03:42:39.755Z,22.72
2022-08-18T03:45:17.685Z,22.72
2022-08-18T03:47:46.178Z,22.73
2022-08-18T03:50:14.168Z,22.76
2022-08-18T03:52:41.952Z,22.76
2022-08-18T03:55:09.763Z,22.79
2022-08-18T03:57:39.296Z,22.82
2022-08-18T04:00:07.143Z,22.87
2022-08-18T04:02:34.184Z,22.92
2022-08-18T04:05:01.336Z,22.96
2022-08-18T04:07:32.341Z,23.00
2022-08-18T04:09:59.332Z,23.02
2022-08-18T04:12:26.599Z,23.06
2022-08-18T04:14:53.659Z,23.13
2022-08-18T04:17:25.314Z,23.19
2022-08-18T04:19:55.940Z,23.26
2022-08-18T04:22:23.007Z,23.36
2022-08-18T04:24:50.826Z,23.44
2022-08-18T04:27:18.964Z,23.51
2022-08-18T04:29:46.326Z,23.61
2022-08-18T04:32:13.379Z,23.70
2022-08-18T04:34:40.531Z,23.80
2022-08-18T04:37:09.906Z,23.90
2022-08-18T04:39:37.827Z,23.99
2022-08-18T04:42:06.310Z,24.08
2022-08-18T04:44:34.582Z,24.18
2022-08-18T04:47:02.055Z,24.28
2022-08-18T04:49:30.530Z,24.38
2022-08-18T04:52:34.205Z,24.47
2022-08-18T04:55:04.328Z,24.59
2022-08-18T04:57:35.103Z,24.68
2022-08-18T05:00:03.052Z,24.78
2022-08-18T05:02:33.244Z,24.89
2022-08-18T05:05:03.508Z,25.00
2022-08-18T05:07:31.110Z,25.12
2022-08-18T05:09:58.267Z,25.23
2022-08-18T05:12:25.905Z,25.35
2022-08-18T05:14:54.109Z,25.44
2022-08-18T05:17:21.060Z,25.54
2022-08-18T05:19:49.818Z,25.67
2022-08-18T05:22:24.243Z,25.77
2022-08-18T05:24:55.810Z,25.87
2022-08-18T05:27:22.771Z,25.99
2022-08-18T05:29:51.702Z,26.18
2022-08-18T05:32:42.573Z,26.37
2022-08-18T05:35:12.486Z,26.55
2022-08-18T05:38:08.321Z,26.68
2022-08-18T05:40:35.473Z,26.84
2022-08-18T05:43:02.612Z,26.93
2022-08-18T05:45:29.673Z,27.07
2022-08-18T05:48:02.377Z,27.21
2022-08-18T05:50:30.078Z,27.36
2022-08-18T05:53:12.504Z,27.56
2022-08-18T05:55:59.846Z,27.79
2022-08-18T05:58:32.956Z,28.00
2022-08-18T06:01:24.661Z,28.15
2022-08-18T06:04:16.388Z,28.21
2022-08-18T06:06:47.464Z,28.37
2022-08-18T06:09:44.485Z,28.52
2022-08-18T06:12:47.122Z,28.71
2022-08-18T06:15:14.751Z,29.04
2022-08-18T06:18:15.980Z,29.29
2022-08-18T06:20:53.882Z,29.43
2022-08-18T06:23:28.193Z,29.53
2022-08-18T06:26:09.689Z,29.71
2022-08-18T06:29:06.541Z,29.94
2022-08-18T06:31:36.550Z,30.19
2022-08-18T06:34:14.347Z,30.32
2022-08-18T06:37:20.511Z,30.46
2022-08-18T06:39:52.534Z,30.66
2022-08-18T06:42:30.708Z,30.76
2022-08-18T06:45:01.216Z,30.88
2022-08-18T06:47:53.237Z,31.12
2022-08-18T06:50:44.778Z,31.34
2022-08-18T06:53:26.737Z,31.53
2022-08-18T06:55:54.030Z,31.79
2022-08-18T06:58:30.713Z,32.07
2022-08-18T07:01:02.949Z,32.27
2022-08-18T07:03:39.644Z,32.35
2022-08-18T07:06:11.628Z,32.41
2022-08-18T07:08:43.458Z,32.50
2022-08-18T07:11:25.657Z,32.82
2022-08-18T07:14:21.638Z,33.04
2022-08-18T07:16:58.739Z,33.32
2022-08-18T07:19:29.395Z,33.44
2022-08-18T07:22:05.656Z,33.58
2022-08-18T07:24:34.580Z,33.77
2022-08-18T07:27:03.130Z,34.01
2022-08-18T07:29:32.861Z,34.25
2022-08-18T07:32:21.169Z,34.33
2022-08-18T07:34:55.204Z,34.41
2022-08-18T07:37:51.199Z,34.64
2022-08-18T07:40:31.593Z,34.94
2022-08-18T07:43:48.095Z,35.26
2022-08-18T07:46:23.643Z,35.63
2022-08-18T07:48:52.270Z,35.70
2022-08-18T07:51:23.894Z,35.77
2022-08-18T07:54:54.289Z,36.00
2022-08-18T07:58:00.924Z,36.43
2022-08-18T08:01:00.213Z,36.78
2022-08-18T08:03:48.881Z,37.21
2022-08-18T08:07:00.567Z,37.50
2022-08-18T08:09:56.302Z,37.72
2022-08-18T08:12:32.364Z,37.74
2022-08-18T08:15:17.953Z,37.66
2022-08-18T08:18:36.718Z,37.55
2022-08-18T08:21:11.006Z,37.62
2022-08-18T08:24:01.232Z,37.54
2022-08-18T08:26:47.685Z,37.14
2022-08-18T08:29:41.413Z,36.67
2022-08-18T08:32:16.147Z,36.27
2022-08-18T08:34:57.535Z,35.91
2022-08-18T08:37:30.576Z,35.62
2022-08-18T08:40:38.225Z,35.32
2022-08-18T08:43:16.146Z,35.09
2022-08-18T08:46:00.589Z,34.94
2022-08-18T08:48:29.812Z,34.75
2022-08-18T08:51:01.619Z,34.62
2022-08-18T08:53:33.204Z,34.57
2022-08-18T08:56:04.155Z,34.57
2022-08-18T08:58:37.237Z,34.52
2022-08-18T09:01:04.286Z,34.42
2022-08-18T09:03:45.778Z,34.14
2022-08-18T09:06:35.256Z,33.86
2022-08-18T09:09:18.180Z,33.75
2022-08-18T09:12:12.163Z,33.53
2022-08-18T09:15:05.528Z,33.32
2022-08-18T09:17:41.798Z,33.26
2022-08-18T09:20:40.698Z,33.25
2022-08-18T09:23:28.846Z,33.44
2022-08-18T09:25:58.631Z,33.69
2022-08-18T09:28:28.570Z,33.81
2022-08-18T09:31:08.859Z,33.78
2022-08-18T09:33:49.395Z,33.64
2022-08-18T09:36:30.096Z,33.53
2022-08-18T09:39:23.228Z,33.42
2022-08-18T09:41:55.795Z,33.34
2022-08-18T09:44:48.863Z,33.37
2022-08-18T09:47:22.398Z,33.49
2022-08-18T09:50:26.755Z,33.77
2022-08-18T09:52:57.803Z,34.35
2022-08-18T09:55:24.970Z,34.69
2022-08-18T09:58:15.265Z,35.00
2022-08-18T10:00:44.258Z,35.15
2022-08-18T10:03:13.734Z,35.21
2022-08-18T10:05:41.736Z,35.29
2022-08-18T10:08:09.031Z,35.45
2022-08-18T10:11:00.400Z,35.42
2022-08-18T10:13:51.213Z,35.16
2022-08-18T10:16:23.892Z,34.90
2022-08-18T10:19:00.261Z,34.71
2022-08-18T10:21:31.487Z,34.52
2022-08-18T10:24:29.930Z,34.20
2022-08-18T10:26:54.530Z,33.93
2022-08-18T10:29:32.284Z,33.82
2022-08-18T10:32:00.063Z,33.74
2022-08-18T10:34:52.458Z,33.72
2022-08-18T10:37:44.935Z,33.66
2022-08-18T10:40:14.749Z,33.52
2022-08-18T10:42:45.321Z,33.32
2022-08-18T10:45:31.015Z,33.06
2022-08-18T10:48:19.304Z,32.83
2022-08-18T10:50:58.880Z,32.59
2022-08-18T10:53:43.969Z,32.28
2022-08-18T10:56:34.404Z,31.70
2022-08-18T10:59:19.895Z,31.00
2022-08-18T11:02:27.742Z,30.23
2022-08-18T11:04:58.934Z,29.57
2022-08-18T11:07:30.916Z,28.93
2022-08-18T11:10:28.063Z,28.29
2022-08-18T11:13:13.341Z,27.76
2022-08-18T11:15:53.230Z,27.51
2022-08-18T11:18:30.079Z,27.27
2022-08-18T11:21:41.825Z,27.16
2022-08-18T11:24:14.072Z,27.23
2022-08-18T11:26:56.153Z,27.33
2022-08-18T11:29:24.732Z,27.45
2022-08-18T11:31:54.915Z,27.64
2022-08-18T11:34:39.099Z,27.85
2022-08-18T11:37:51.848Z,27.99
2022-08-18T11:43:13.699Z,28.12
2022-08-18T11:45:48.236Z,28.17
2022-08-18T11:48:15.147Z,28.23
2022-08-18T11:53:44.256Z,28.35
2022-08-18T11:56:14.457Z,28.45
2022-08-18T11:58:50.460Z,28.54
2022-08-18T12:01:55.087Z,28.59
2022-08-18T12:04:26.342Z,28.67
2022-08-18T12:06:56.562Z,28.72
2022-08-18T12:12:28.557Z,28.77
2022-08-18T12:15:22.618Z,28.75
2022-08-18T12:17:53.183Z,28.71
2022-08-18T12:20:21.147Z,28.69
2022-08-18T12:22:49.729Z,28.65
2022-08-18T12:25:25.436Z,28.59
2022-08-18T12:27:54.184Z,28.58
2022-08-18T12:30:21.540Z,28.54
2022-08-18T12:32:49.931Z,28.46
2022-08-18T12:35:21.966Z,28.43
2022-08-18T12:38:12.987Z,28.40
2022-08-18T12:40:37.191Z,28.33
2022-08-18T12:43:05.864Z,28.18
2022-08-18T12:45:32.959Z,28.00
2022-08-18T12:50:54.711Z,27.68
2022-08-18T12:53:30.230Z,27.48
2022-08-18T12:56:22.925Z,27.23
2022-08-18T12:58:53.125Z,27.02
2022-08-18T13:01:20.307Z,26.88
2022-08-18T13:04:11.388Z,26.81
2022-08-18T13:06:46.948Z,26.75
2022-08-18T13:09:42.944Z,26.73
2022-08-18T13:12:16.294Z,26.76
2022-08-18T13:14:43.902Z,26.77
2022-08-18T13:17:29.684Z,26.79
2022-08-18T13:20:00.613Z,26.81
2022-08-18T13:22:32.844Z,26.82
2022-08-18T13:25:03.828Z,26.80
2022-08-18T13:27:35.270Z,26.83
2022-08-18T13:30:29.452Z,26.97
2022-08-18T13:32:58.823Z,27.11
2022-08-18T13:35:30.010Z,27.23
2022-08-18T13:38:14.317Z,27.33
2022-08-18T13:40:48.811Z,27.37
2022-08-18T13:43:17.390Z,27.42
2022-08-18T13:45:52.687Z,27.47
2022-08-18T13:48:21.313Z,27.52
2022-08-18T13:50:52.748Z,27.56
2022-08-18T13:53:20.127Z,27.60
2022-08-18T13:55:47.586Z,27.67
2022-08-18T13:58:20.253Z,27.79
2022-08-18T14:01:01.857Z,27.91
2022-08-18T14:03:47.674Z,28.14
2022-08-18T14:06:22.536Z,28.26
2022-08-18T14:08:52.003Z,28.41
2022-08-18T14:11:19.148Z,28.58
2022-08-18T14:13:47.117Z,28.70
2022-08-18T14:16:19.067Z,28.75
2022-08-18T14:19:10.437Z,28.82
2022-08-18T14:22:01.929Z,28.95
2022-08-18T14:24:49.315Z,29.11
2022-08-18T14:27:18.084Z,29.23
2022-08-18T14:29:48.015Z,29.36
2022-08-18T14:32:18.059Z,29.49
2022-08-18T14:34:50.836Z,29.65
2022-08-18T14:37:18.343Z,29.79
2022-08-18T14:39:48.087Z,29.89
2022-08-18T14:42:32.793Z,29.96
2022-08-18T14:45:26.697Z,30.04
2022-08-18T14:47:59.955Z,30.14
2022-08-18T14:50:26.932Z,30.19
2022-08-18T14:52:53.878Z,30.22
2022-08-18T14:55:20.930Z,30.24
2022-08-18T14:57:50.263Z,30.23
2022-08-18T15:00:20.884Z,30.21
2022-08-18T15:02:49.446Z,30.15
2022-08-18T15:05:19.502Z,30.11
2022-08-18T15:07:51.429Z,30.07
2022-08-18T15:10:19.950Z,30.01
2022-08-18T15:12:51.647Z,29.92
2022-08-18T15:15:19.139Z,29.83
2022-08-18T15:17:52.558Z,29.73
2022-08-18T15:20:28.886Z,29.66
2022-08-18T15:23:24.760Z,29.62
2022-08-18T15:25:55.112Z,29.52
2022-08-18T15:28:25.314Z,29.43
2022-08-18T15:31:16.553Z,29.32
2022-08-18T15:33:39.464Z,29.19
2022-08-18T15:36:09.941Z,29.09
2022-08-18T15:38:37.355Z,28.96
2022-08-18T15:41:06.259Z,28.82
2022-08-18T15:43:45.908Z,28.70
2022-08-18T15:46:16.601Z,28.60
2022-08-18T15:48:43.817Z,28.49
2022-08-18T15:51:12.008Z,28.37
2022-08-18T15:53:44.563Z,28.26
2022-08-18T15:56:21.026Z,28.17
2022-08-18T15:58:49.124Z,28.06
2022-08-18T16:01:30.606Z,27.85
2022-08-18T16:04:01.491Z,27.71
2022-08-18T16:06:32.499Z,27.63
2022-08-18T16:08:59.840Z,27.55
2022-08-18T16:11:29.143Z,27.48
2022-08-18T16:13:59.014Z,27.44
2022-08-18T16:16:29.123Z,27.40
2022-08-18T16:19:08.033Z,27.33
2022-08-18T16:21:38.664Z,27.29
2022-08-18T16:24:05.821Z,27.26
2022-08-18T16:26:32.873Z,27.22
2022-08-18T16:29:01.799Z,27.19
2022-08-18T16:31:29.642Z,27.15
2022-08-18T16:33:57.410Z,27.14
2022-08-18T16:36:25.826Z,27.07
2022-08-18T16:38:53.771Z,27.01
2022-08-18T16:41:23.075Z,26.96
2022-08-18T16:43:50.024Z,26.91
2022-08-18T16:46:21.513Z,26.86
2022-08-18T16:48:49.599Z,26.88
2022-08-18T16:51:17.561Z,26.86
2022-08-18T16:53:46.322Z,26.80
2022-08-18T16:56:18.899Z,26.76
2022-08-18T16:59:05.453Z,26.68
2022-08-18T17:01:53.533Z,26.64
2022-08-18T17:04:22.834Z,26.59
2022-08-18T17:06:50.322Z,26.54
2022-08-18T17:09:18.296Z,26.51
2022-08-18T17:11:51.255Z,26.47
2022-08-18T17:14:19.867Z,26.41
2022-08-18T17:16:48.490Z,26.36
2022-08-18T17:19:15.448Z,26.33
2022-08-18T17:21:42.349Z,26.26
2022-08-18T17:24:10.527Z,26.23
2022-08-18T17:27:05.912Z,26.17
2022-08-18T17:29:53.569Z,26.17
2022-08-18T17:32:25.122Z,26.14
2022-08-18T17:35:04.679Z,26.12
2022-08-18T17:37:31.757Z,26.05
2022-08-18T17:40:05.020Z,25.99
2022-08-18T17:42:33.781Z,25.90
2022-08-18T17:45:21.632Z,25.82
2022-08-18T17:48:11.804Z,25.79
2022-08-18T17:51:09.095Z,25.67
2022-08-18T17:53:38.973Z,25.63
2022-08-18T17:56:35.086Z,25.65
2022-08-18T17:59:07.417Z,25.62
2022-08-18T18:02:24.554Z,25.58
2022-08-18T18:04:59.545Z,25.51
2022-08-18T18:07:32.910Z,25.47
2022-08-18T18:10:03.607Z,25.44
2022-08-18T18:12:31.825Z,25.42
2022-08-18T18:14:59.385Z,25.37
2022-08-18T18:17:30.320Z,25.32
2022-08-18T18:20:22.148Z,25.28
2022-08-18T18:22:49.098Z,25.26
2022-08-18T18:25:34.563Z,25.24
2022-08-18T18:28:01.841Z,25.25
2022-08-18T18:30:32.990Z,25.23
2022-08-18T18:33:02.898Z,25.22
2022-08-18T18:35:54.403Z,25.22
2022-08-18T18:38:30.292Z,25.22
2022-08-18T18:41:20.690Z,25.21
2022-08-18T18:43:49.182Z,25.16
2022-08-18T18:46:27.494Z,25.11
2022-08-18T18:49:19.330Z,25.04
2022-08-18T18:51:47.612Z,25.03
2022-08-18T18:54:33.085Z,25.01
2022-08-18T18:57:00.356Z,24.96
2022-08-18T18:59:46.396Z,24.89
2022-08-18T19:02:41.568Z,24.93
2022-08-18T19:05:11.386Z,24.95
2022-08-18T19:07:48.983Z,24.96
2022-08-18T19:10:37.734Z,24.99
2022-08-18T19:13:32.458Z,24.99
2022-08-18T19:16:06.500Z,25.00
2022-08-18T19:18:41.285Z,24.99
2022-08-18T19:22:04.396Z,25.00
2022-08-18T19:24:03.306Z,24.98
2022-08-18T19:26:39.976Z,24.94
2022-08-18T19:29:14.108Z,24.92
2022-08-18T19:31:49.918Z,24.90
2022-08-18T19:34:31.204Z,24.90
2022-08-18T19:37:13.822Z,24.89
2022-08-18T19:39:54.739Z,24.88
2022-08-18T19:42:35.284Z,24.87
2022-08-18T19:45:17.000Z,24.86
2022-08-18T19:48:07.156Z,24.85
2022-08-18T19:50:35.808Z,24.83
2022-08-18T19:53:22.880Z,24.81
2022-08-18T19:56:14.541Z,24.79
2022-08-18T19:59:15.596Z,24.78
2022-08-18T20:01:55.376Z,24.76
2022-08-18T20:04:33.722Z,24.74
2022-08-18T20:07:28.527Z,24.73
2022-08-18T20:10:01.448Z,24.72
2022-08-18T20:13:06.151Z,24.71
2022-08-18T20:15:33.139Z,24.66
2022-08-18T20:18:03.077Z,24.64
2022-08-18T20:20:32.010Z,24.64
2022-08-18T20:22:59.553Z,24.63
2022-08-18T20:25:45.251Z,24.63
2022-08-18T20:28:13.015Z,24.63
2022-08-18T20:30:40.046Z,24.60
2022-08-18T20:33:19.809Z,24.59
2022-08-18T20:36:10.716Z,24.60
2022-08-18T20:38:37.660Z,24.61
2022-08-18T20:41:23.352Z,24.60
2022-08-18T20:43:59.307Z,24.58
2022-08-18T20:46:43.417Z,24.55
2022-08-18T20:49:42.857Z,24.49
2022-08-18T20:52:35.859Z,24.42
2022-08-18T20:55:21.208Z,24.39
2022-08-18T20:57:51.277Z,24.36
2022-08-18T21:00:27.341Z,24.33
2022-08-18T21:02:59.265Z,24.30
2022-08-18T21:05:34.461Z,24.28
2022-08-18T21:08:13.403Z,24.25
2022-08-18T21:10:57.483Z,24.22
2022-08-18T21:13:31.250Z,24.18
2022-08-18T21:15:58.707Z,24.17
2022-08-18T21:18:26.471Z,24.15
2022-08-18T21:20:55.446Z,24.13
2022-08-18T21:23:27.127Z,24.10
2022-08-18T21:25:57.970Z,24.09
2022-08-18T21:28:26.145Z,24.08
2022-08-18T21:31:30.813Z,24.06
2022-08-18T21:34:10.220Z,24.03
2022-08-18T21:36:39.926Z,24.01
2022-08-18T21:39:09.600Z,23.99
2022-08-18T21:41:46.521Z,23.97
2022-08-18T21:44:44.696Z,23.96
2022-08-18T21:47:38.062Z,23.95
2022-08-18T21:50:16.240Z,23.95
2022-08-18T21:53:12.440Z,23.92
2022-08-18T21:55:42.563Z,23.91
2022-08-18T21:58:18.521Z,23.91
2022-08-18T22:01:07.571Z,23.91
2022-08-18T22:03:35.153Z,23.89
2022-08-18T22:06:21.120Z,23.88
2022-08-18T22:09:28.517Z,23.86
2022-08-18T22:12:42.367Z,23.85
2022-08-18T22:15:27.647Z,23.85
2022-08-18T22:17:57.670Z,23.86
2022-08-18T22:20:36.900Z,23.86
2022-08-18T22:23:28.630Z,23.85
2022-08-18T22:26:12.608Z,23.83
2022-08-18T22:28:57.654Z,23.83
2022-08-18T22:31:26.038Z,23.81
2022-08-18T22:33:55.857Z,23.81
2022-08-18T22:36:27.773Z,23.76
2022-08-18T22:38:54.769Z,23.71
2022-08-18T22:41:21.816Z,23.67
2022-08-18T22:43:54.723Z,23.64
2022-08-18T22:46:24.915Z,23.62
2022-08-18T22:48:52.865Z,23.61
2022-08-18T22:51:21.871Z,23.59
2022-08-18T22:53:48.842Z,23.57
2022-08-18T22:56:15.792Z,23.55
2022-08-18T22:58:49.805Z,23.53
2022-08-18T23:01:17.877Z,23.53
2022-08-18T23:03:44.913Z,23.52
2022-08-18T23:06:11.983Z,23.50
2022-08-18T23:08:54.425Z,23.49
2022-08-18T23:11:24.414Z,23.48
2022-08-18T23:13:51.365Z,23.45
2022-08-18T23:16:31.302Z,23.43
2022-08-18T23:19:03.086Z,23.39
2022-08-18T23:21:34.466Z,23.37
2022-08-18T23:24:07.217Z,23.35
2022-08-18T23:26:34.570Z,23.30
2022-08-18T23:29:02.371Z,23.28
2022-08-18T23:31:30.614Z,23.26
2022-08-18T23:33:59.777Z,23.24
2022-08-18T23:36:30.656Z,23.22
2022-08-18T23:38:57.704Z,23.20
2022-08-18T23:41:24.651Z,23.20
2022-08-18T23:43:51.594Z,23.19
2022-08-18T23:46:22.573Z,23.19
2022-08-18T23:48:50.878Z,23.18
2022-08-18T23:51:29.651Z,23.18
2022-08-18T23:53:59.211Z,23.16
2022-08-18T23:56:31.124Z,23.15
2022-08-18T23:58:58.376Z,23.14
